Lake Nepessing, Michigan
Current Conditions -  °F | °C
As of 5:13 PM on Tuesday 21 Oct 2014 (Local Time) from KD95 Reporting Station
Overcast Overcast  
Wind Chill: 36°   Ceiling: 1900
Heat Index: 43°   Visibility: 10mi
Dew Point: 36°   Wind: 15mph
Humidity: 77%   Direction: 10°N
Pressure: 30.13"   Gusts: 22mph
Location:  43.0516°N, 83.3333°W
Report Text: KD95 212113Z AUTO 01013G19KT 10SM OVC019 06/02 A3013 RMK AO2 T00610023
Loading
Personal Weather Stations






























Interactive Weather Map
Tropical Storm Tracking
New forecast layout! Learn more

10-Day Weather Forecast

Advertisements
Track Severe Weather on mobile